createdAt,value
2018-05-29T00:02:02.443Z,15.30
2018-05-29T00:04:29.511Z,15.30
2018-05-29T00:06:56.619Z,15.30
2018-05-29T00:09:23.668Z,15.30
2018-05-29T00:11:50.734Z,15.20
2018-05-29T00:14:17.842Z,15.30
2018-05-29T00:16:45.651Z,15.30
2018-05-29T00:19:12.709Z,15.30
2018-05-29T00:21:39.766Z,15.30
2018-05-29T00:24:06.802Z,15.30
2018-05-29T00:26:33.862Z,15.30
2018-05-29T00:29:00.938Z,15.20
2018-05-29T00:31:27.998Z,15.30
2018-05-29T00:33:55.039Z,15.20
2018-05-29T00:36:22.126Z,15.20
2018-05-29T00:38:49.178Z,15.10
2018-05-29T00:41:16.224Z,15.10
2018-05-29T00:43:43.314Z,15.10
2018-05-29T00:46:10.360Z,15.10
2018-05-29T00:48:37.400Z,15.10
2018-05-29T00:51:04.473Z,15.00
2018-05-29T00:53:31.524Z,15.00
2018-05-29T00:55:58.562Z,15.00
2018-05-29T00:58:25.662Z,15.00
2018-05-29T01:00:53.470Z,15.00
2018-05-29T01:03:20.510Z,15.00
2018-05-29T01:05:47.598Z,15.00
2018-05-29T01:08:14.642Z,15.00
2018-05-29T01:10:41.690Z,14.90
2018-05-29T01:13:08.758Z,14.90
2018-05-29T01:15:35.818Z,15.00
2018-05-29T01:18:02.861Z,14.90
2018-05-29T01:20:29.953Z,14.90
2018-05-29T01:22:57.008Z,14.90
2018-05-29T01:25:24.052Z,14.90
2018-05-29T01:27:51.141Z,14.90
2018-05-29T01:30:18.215Z,14.90
2018-05-29T01:32:45.261Z,14.90
2018-05-29T01:35:12.335Z,14.90
2018-05-29T01:37:40.146Z,14.90
2018-05-29T01:40:07.198Z,14.90
2018-05-29T01:42:34.292Z,14.80
2018-05-29T01:45:01.334Z,14.80
2018-05-29T01:47:30.402Z,14.80
2018-05-29T01:49:57.496Z,14.80
2018-05-29T01:52:24.538Z,14.80
2018-05-29T01:54:52.347Z,14.80
2018-05-29T01:57:19.405Z,14.80
2018-05-29T01:59:46.462Z,14.80
2018-05-29T02:02:13.505Z,14.80
2018-05-29T02:04:40.575Z,14.80
2018-05-29T02:07:07.622Z,14.80
2018-05-29T02:09:34.670Z,14.80
2018-05-29T02:12:01.768Z,14.80
2018-05-29T02:14:29.583Z,14.80
2018-05-29T02:16:56.635Z,14.80
2018-05-29T02:19:23.690Z,14.90
2018-05-29T02:24:23.403Z,14.90
2018-05-29T02:26:50.463Z,14.90
2018-05-29T02:29:17.515Z,14.90
2018-05-29T02:31:44.770Z,14.90
2018-05-29T02:34:11.858Z,14.90
2018-05-29T02:36:38.905Z,14.90
2018-05-29T02:39:05.950Z,14.90
2018-05-29T02:41:33.806Z,14.90
2018-05-29T02:44:00.850Z,14.90
2018-05-29T02:46:28.260Z,14.90
2018-05-29T02:48:55.318Z,14.90
2018-05-29T02:51:22.363Z,14.90
2018-05-29T02:53:49.408Z,14.90
2018-05-29T02:56:16.501Z,14.90
2018-05-29T02:58:43.541Z,14.90
2018-05-29T03:01:10.602Z,14.90
2018-05-29T03:03:37.686Z,14.90
2018-05-29T03:06:04.729Z,14.90
2018-05-29T03:08:31.782Z,15.00
2018-05-29T03:10:59.605Z,15.00
2018-05-29T03:13:26.646Z,15.00
2018-05-29T03:15:53.686Z,15.00
2018-05-29T03:18:20.785Z,15.00
2018-05-29T03:20:47.839Z,15.10
2018-05-29T03:23:15.658Z,15.10
2018-05-29T03:25:42.737Z,15.10
2018-05-29T03:28:09.777Z,15.10
2018-05-29T03:30:36.829Z,15.10
2018-05-29T03:33:03.886Z,15.20
2018-05-29T03:35:30.934Z,15.20
2018-05-29T03:37:57.982Z,15.20
2018-05-29T03:40:25.046Z,15.20
2018-05-29T03:42:52.086Z,15.30
2018-05-29T03:45:19.131Z,15.30
2018-05-29T03:47:46.219Z,15.40
2018-05-29T03:50:14.034Z,15.40
2018-05-29T03:52:41.077Z,15.40
2018-05-29T03:55:08.928Z,15.40
2018-05-29T03:57:35.968Z,15.40
2018-05-29T04:00:03.066Z,15.40
2018-05-29T04:02:30.122Z,15.40
2018-05-29T04:04:57.165Z,15.40
2018-05-29T04:07:24.209Z,15.50
2018-05-29T04:09:51.271Z,15.50
2018-05-29T04:12:18.316Z,15.50
2018-05-29T04:14:45.358Z,15.50
2018-05-29T04:17:12.441Z,15.50
2018-05-29T04:19:39.482Z,15.60
2018-05-29T04:22:07.002Z,15.60
2018-05-29T04:24:34.070Z,15.60
2018-05-29T04:27:01.110Z,15.70
2018-05-29T04:29:28.149Z,15.80
2018-05-29T04:31:55.210Z,15.80
2018-05-29T04:34:22.257Z,15.90
2018-05-29T04:36:49.302Z,16.00
2018-05-29T04:39:16.397Z,16.10
2018-05-29T04:41:43.806Z,16.20
2018-05-29T04:44:10.867Z,16.30
2018-05-29T04:46:37.933Z,16.40
2018-05-29T04:49:04.987Z,16.50
2018-05-29T04:51:32.030Z,16.60
2018-05-29T04:53:59.090Z,16.70
2018-05-29T04:56:26.134Z,16.80
2018-05-29T04:58:53.194Z,16.90
2018-05-29T05:01:20.278Z,17.00
2018-05-29T05:03:48.084Z,17.20
2018-05-29T05:06:15.138Z,17.10
2018-05-29T05:08:42.198Z,17.20
2018-05-29T05:11:09.240Z,17.20
2018-05-29T05:13:36.286Z,17.30
2018-05-29T05:16:03.352Z,17.30
2018-05-29T05:18:30.397Z,17.40
2018-05-29T05:20:57.445Z,17.50
2018-05-29T05:23:24.524Z,17.60
2018-05-29T05:25:51.571Z,17.70
2018-05-29T05:28:18.620Z,17.70
2018-05-29T05:30:45.682Z,17.90
2018-05-29T05:33:13.489Z,18.00
2018-05-29T05:35:40.534Z,18.00
2018-05-29T05:38:07.744Z,18.10
2018-05-29T05:40:34.786Z,18.20
2018-05-29T05:43:01.835Z,18.30
2018-05-29T05:45:28.917Z,18.40
2018-05-29T05:47:56.729Z,18.60
2018-05-29T05:50:23.783Z,18.60
2018-05-29T05:52:50.851Z,18.70
2018-05-29T05:55:17.893Z,18.80
2018-05-29T05:57:44.948Z,19.00
2018-05-29T06:00:12.039Z,19.10
2018-05-29T06:02:39.098Z,19.20
2018-05-29T06:05:06.158Z,19.20
2018-05-29T06:07:33.231Z,19.40
2018-05-29T06:10:00.282Z,19.40
2018-05-29T06:12:27.327Z,19.50
2018-05-29T06:14:54.410Z,19.60
2018-05-29T06:17:21.450Z,19.70
2018-05-29T06:19:48.690Z,19.80
2018-05-29T06:22:15.754Z,19.90
2018-05-29T06:24:42.802Z,20.10
2018-05-29T06:27:09.841Z,20.30
2018-05-29T06:29:36.902Z,20.40
2018-05-29T06:32:03.941Z,20.60
2018-05-29T06:34:31.003Z,20.80
2018-05-29T06:36:58.102Z,21.00
2018-05-29T06:39:25.225Z,21.10
2018-05-29T06:41:52.328Z,21.30
2018-05-29T06:44:19.402Z,21.40
2018-05-29T06:46:46.458Z,21.60
2018-05-29T06:49:13.552Z,21.70
2018-05-29T06:51:40.680Z,21.80
2018-05-29T06:54:07.751Z,21.90
2018-05-29T06:56:34.807Z,22.00
2018-05-29T06:59:01.886Z,22.10
2018-05-29T07:01:28.954Z,22.20
2018-05-29T07:03:56.065Z,22.30
2018-05-29T07:06:23.113Z,22.40
2018-05-29T07:08:50.173Z,22.50
2018-05-29T07:11:17.231Z,22.70
2018-05-29T07:13:44.322Z,22.80
2018-05-29T07:16:11.378Z,22.90
2018-05-29T07:18:39.200Z,23.00
2018-05-29T07:21:06.286Z,23.00
2018-05-29T07:23:33.334Z,23.20
2018-05-29T07:26:00.386Z,23.30
2018-05-29T07:28:27.466Z,23.40
2018-05-29T07:30:54.518Z,23.50
2018-05-29T07:33:21.607Z,23.60
2018-05-29T07:35:48.666Z,23.80
2018-05-29T07:38:15.718Z,23.90
2018-05-29T07:40:42.770Z,24.10
2018-05-29T07:43:09.858Z,24.20
2018-05-29T07:45:36.910Z,24.40
2018-05-29T07:48:04.042Z,24.50
2018-05-29T07:50:31.116Z,24.60
2018-05-29T07:52:58.158Z,24.80
2018-05-29T07:55:25.205Z,24.90
2018-05-29T07:57:53.059Z,25.20
2018-05-29T08:00:20.102Z,25.20
2018-05-29T08:02:47.156Z,25.30
2018-05-29T08:05:14.207Z,25.40
2018-05-29T08:07:41.258Z,25.50
2018-05-29T08:10:09.071Z,25.80
2018-05-29T08:12:36.125Z,25.70
2018-05-29T08:15:03.163Z,25.90
2018-05-29T08:17:30.212Z,26.10
2018-05-29T08:19:57.309Z,26.30
2018-05-29T08:22:24.357Z,26.40
2018-05-29T08:24:51.554Z,26.50
2018-05-29T08:27:18.651Z,26.60
2018-05-29T08:29:45.690Z,26.70
2018-05-29T08:32:12.733Z,26.80
2018-05-29T08:34:39.798Z,26.90
2018-05-29T08:37:06.841Z,26.90
2018-05-29T08:39:33.893Z,27.00
2018-05-29T08:42:00.965Z,27.10
2018-05-29T08:44:28.007Z,27.20
2018-05-29T08:46:55.047Z,27.30
2018-05-29T08:49:22.135Z,27.30
2018-05-29T08:51:49.241Z,27.40
2018-05-29T08:54:16.275Z,27.50
2018-05-29T08:56:43.372Z,27.50
2018-05-29T08:59:11.358Z,27.60
2018-05-29T09:01:38.397Z,27.60
2018-05-29T09:04:05.564Z,27.80
2018-05-29T09:06:32.556Z,27.90
2018-05-29T09:08:59.598Z,28.00
2018-05-29T09:11:26.653Z,28.10
2018-05-29T09:13:53.748Z,28.10
2018-05-29T09:16:20.790Z,28.10
2018-05-29T09:18:47.842Z,28.30
2018-05-29T09:21:14.916Z,28.40
2018-05-29T09:23:42.726Z,28.60
2018-05-29T09:26:09.806Z,28.50
2018-05-29T09:28:36.842Z,28.60
2018-05-29T09:31:03.901Z,28.70
2018-05-29T09:33:30.968Z,28.80
2018-05-29T09:35:58.010Z,28.90
2018-05-29T09:38:25.060Z,28.90
2018-05-29T09:40:52.122Z,29.00
2018-05-29T09:43:19.162Z,29.00
2018-05-29T09:45:46.219Z,29.00
2018-05-29T09:48:13.320Z,28.90
2018-05-29T09:50:40.369Z,28.80
2018-05-29T09:53:07.414Z,28.80
2018-05-29T09:55:34.558Z,28.90
2018-05-29T09:58:01.603Z,28.90
2018-05-29T10:00:34.402Z,29.00
2018-05-29T10:03:01.447Z,29.10
2018-05-29T10:05:28.487Z,29.20
2018-05-29T10:07:55.595Z,29.30
2018-05-29T10:10:22.658Z,29.40
2018-05-29T10:12:49.710Z,29.40
2018-05-29T10:15:18.326Z,29.30
2018-05-29T10:17:46.882Z,29.40
2018-05-29T10:20:14.905Z,29.30
2018-05-29T10:22:43.225Z,29.40
2018-05-29T10:25:12.580Z,29.50
2018-05-29T10:27:42.615Z,29.50
2018-05-29T10:30:11.216Z,29.60
2018-05-29T10:32:40.417Z,29.50
2018-05-29T10:35:10.049Z,29.60
2018-05-29T10:37:37.200Z,29.60
2018-05-29T10:40:05.025Z,29.70
2018-05-29T10:42:32.080Z,29.70
2018-05-29T10:44:59.186Z,29.80
2018-05-29T10:47:27.875Z,29.90
2018-05-29T10:49:54.930Z,29.90
2018-05-29T10:52:22.019Z,30.00
2018-05-29T10:54:49.073Z,30.10
2018-05-29T10:57:16.300Z,30.10
2018-05-29T10:59:43.430Z,30.10
2018-05-29T11:02:11.245Z,30.10
2018-05-29T11:04:38.294Z,30.10
2018-05-29T11:07:05.374Z,30.10
2018-05-29T11:09:32.423Z,29.90
2018-05-29T11:11:59.468Z,30.00
2018-05-29T11:14:26.558Z,29.90
2018-05-29T11:16:53.606Z,29.80
2018-05-29T11:19:20.675Z,29.80
2018-05-29T11:21:47.794Z,29.80
2018-05-29T11:24:15.604Z,29.60
2018-05-29T11:26:43.095Z,29.60
2018-05-29T11:29:10.153Z,29.50
2018-05-29T11:31:37.197Z,29.60
2018-05-29T11:34:04.694Z,29.70
2018-05-29T11:36:32.206Z,29.70
2018-05-29T11:38:59.265Z,29.70
2018-05-29T11:41:26.759Z,29.60
2018-05-29T11:43:53.866Z,29.60
2018-05-29T11:46:20.909Z,29.60
2018-05-29T11:48:47.974Z,29.70
2018-05-29T11:51:15.061Z,29.70
2018-05-29T11:53:42.127Z,29.70
2018-05-29T11:56:09.186Z,29.80
2018-05-29T11:58:36.699Z,29.90
2018-05-29T12:01:03.770Z,30.00
2018-05-29T12:03:31.597Z,30.10
2018-05-29T12:05:59.152Z,30.10
2018-05-29T12:08:26.202Z,30.10
2018-05-29T12:10:53.251Z,30.20
2018-05-29T12:13:20.422Z,30.20
2018-05-29T12:15:48.265Z,30.40
2018-05-29T12:18:16.108Z,30.50
2018-05-29T12:20:43.652Z,30.50
2018-05-29T12:23:11.160Z,30.50
2018-05-29T12:25:38.678Z,30.60
2018-05-29T12:28:06.208Z,30.70
2018-05-29T12:30:33.705Z,30.70
2018-05-29T12:33:00.775Z,30.70
2018-05-29T12:35:28.310Z,30.80
2018-05-29T12:37:55.884Z,30.90
2018-05-29T12:40:23.438Z,30.80
2018-05-29T12:42:51.087Z,30.70
2018-05-29T12:45:18.635Z,30.80
2018-05-29T12:47:46.890Z,31.00
2018-05-29T12:50:14.957Z,30.90
2018-05-29T12:52:42.081Z,31.00
2018-05-29T12:55:09.583Z,31.10
2018-05-29T12:57:37.138Z,31.10
2018-05-29T13:00:04.645Z,31.10
2018-05-29T13:02:32.186Z,31.20
2018-05-29T13:04:59.710Z,31.20
2018-05-29T13:07:27.207Z,31.30
2018-05-29T13:09:54.700Z,31.30
2018-05-29T13:12:22.248Z,31.30
2018-05-29T13:14:49.754Z,31.30
2018-05-29T13:17:17.275Z,31.30
2018-05-29T13:19:44.834Z,31.50
2018-05-29T13:22:12.347Z,31.60
2018-05-29T13:24:39.846Z,31.70
2018-05-29T13:27:07.456Z,31.80
2018-05-29T13:29:35.014Z,31.90
2018-05-29T13:32:02.558Z,32.00
2018-05-29T13:34:30.288Z,32.00
2018-05-29T13:36:58.660Z,32.00
2018-05-29T13:39:26.977Z,32.00
2018-05-29T13:41:54.540Z,31.90
2018-05-29T13:44:22.040Z,31.90
2018-05-29T13:46:49.571Z,31.70
2018-05-29T13:49:17.161Z,31.60
2018-05-29T13:51:46.146Z,31.60
2018-05-29T13:54:13.733Z,31.60
2018-05-29T13:56:41.303Z,31.60
2018-05-29T13:59:08.808Z,31.50
2018-05-29T14:01:36.406Z,31.50
2018-05-29T14:04:05.122Z,31.30
2018-05-29T14:06:32.771Z,31.30
2018-05-29T14:09:00.308Z,31.10
2018-05-29T14:11:27.875Z,31.00
2018-05-29T14:13:55.382Z,30.90
2018-05-29T14:16:22.900Z,30.70
2018-05-29T14:18:50.453Z,30.70
2018-05-29T14:21:18.034Z,30.60
2018-05-29T14:23:45.606Z,30.50
2018-05-29T14:26:13.974Z,30.40
2018-05-29T14:28:41.494Z,30.40
2018-05-29T14:31:09.194Z,30.40
2018-05-29T14:33:36.905Z,30.40
2018-05-29T14:36:04.431Z,30.30
2018-05-29T14:38:32.199Z,30.10
2018-05-29T14:40:59.790Z,30.00
2018-05-29T14:43:27.467Z,30.00
2018-05-29T14:45:54.970Z,29.90
2018-05-29T14:48:22.502Z,29.80
2018-05-29T14:50:50.027Z,29.80
2018-05-29T14:53:17.537Z,29.70
2018-05-29T14:55:45.092Z,29.70
2018-05-29T14:58:12.584Z,29.70
2018-05-29T15:00:40.079Z,29.70
2018-05-29T15:03:07.629Z,29.70
2018-05-29T15:05:35.276Z,29.70
2018-05-29T15:08:02.782Z,29.80
2018-05-29T15:10:30.383Z,29.80
2018-05-29T15:12:57.889Z,29.90
2018-05-29T15:15:25.461Z,30.00
2018-05-29T15:17:53.006Z,30.10
2018-05-29T15:20:20.579Z,30.20
2018-05-29T15:22:48.083Z,30.30
2018-05-29T15:25:15.594Z,30.50
2018-05-29T15:27:43.092Z,30.60
2018-05-29T15:30:10.594Z,30.70
2018-05-29T15:32:38.134Z,30.90
2018-05-29T15:35:05.635Z,31.10
2018-05-29T15:37:33.135Z,31.30
2018-05-29T15:40:00.682Z,31.50
2018-05-29T15:42:28.175Z,31.60
2018-05-29T15:44:55.668Z,31.70
2018-05-29T15:47:23.194Z,32.00
2018-05-29T15:49:50.687Z,32.20
2018-05-29T15:52:19.011Z,32.50
2018-05-29T15:54:47.300Z,32.80
2018-05-29T15:57:16.812Z,32.80
2018-05-29T15:59:44.523Z,32.90
2018-05-29T16:02:13.020Z,33.20
2018-05-29T16:04:40.510Z,33.20
2018-05-29T16:07:08.014Z,33.30
2018-05-29T16:09:41.887Z,33.30
2018-05-29T16:12:09.395Z,33.20
2018-05-29T16:14:36.883Z,33.30
2018-05-29T16:17:04.403Z,33.40
2018-05-29T16:19:32.682Z,33.50
2018-05-29T16:22:00.230Z,33.40
2018-05-29T16:24:27.791Z,33.70
2018-05-29T16:26:55.295Z,33.90
2018-05-29T16:29:22.788Z,34.00
2018-05-29T16:31:50.319Z,34.00
2018-05-29T16:34:17.821Z,34.10
2018-05-29T16:36:45.330Z,34.20
2018-05-29T16:39:12.847Z,34.40
2018-05-29T16:41:40.342Z,34.60
2018-05-29T16:44:07.865Z,34.90
2018-05-29T16:46:35.468Z,34.90
2018-05-29T16:49:03.810Z,34.80
2018-05-29T16:51:31.272Z,34.80
2018-05-29T16:53:59.412Z,34.50
2018-05-29T16:56:26.973Z,34.40
2018-05-29T16:58:54.437Z,34.30
2018-05-29T17:01:21.959Z,34.20
2018-05-29T17:03:49.479Z,34.10
2018-05-29T17:06:16.978Z,34.00
2018-05-29T17:08:45.319Z,33.70
2018-05-29T17:11:13.973Z,33.60
2018-05-29T17:13:41.483Z,33.50
2018-05-29T17:16:09.027Z,33.30
2018-05-29T17:18:36.539Z,33.30
2018-05-29T17:21:04.414Z,33.30
2018-05-29T17:23:31.951Z,33.20
2018-05-29T17:26:00.234Z,33.00
2018-05-29T17:28:27.928Z,33.00
2018-05-29T17:30:57.519Z,32.90
2018-05-29T17:33:25.039Z,32.60
2018-05-29T17:35:52.544Z,32.30
2018-05-29T17:38:20.145Z,32.00
2018-05-29T17:40:48.369Z,30.80
2018-05-29T17:43:16.646Z,29.90
2018-05-29T17:45:44.218Z,29.90
2018-05-29T17:48:11.786Z,29.00
2018-05-29T17:50:40.437Z,27.60
2018-05-29T17:53:07.962Z,27.50
2018-05-29T17:55:35.459Z,27.00
2018-05-29T17:58:02.955Z,26.50
2018-05-29T18:00:30.494Z,26.10
2018-05-29T18:02:57.992Z,25.80
2018-05-29T18:05:25.539Z,25.50
2018-05-29T18:07:53.158Z,25.20
2018-05-29T18:10:20.646Z,25.00
2018-05-29T18:12:48.910Z,24.50
2018-05-29T18:15:16.472Z,24.40
2018-05-29T18:17:44.082Z,24.20
2018-05-29T18:20:11.603Z,24.10
2018-05-29T18:22:40.067Z,23.80
2018-05-29T18:25:10.253Z,23.80
2018-05-29T18:27:37.897Z,23.60
2018-05-29T18:30:05.459Z,23.50
2018-05-29T18:32:33.682Z,23.30
2018-05-29T18:35:01.183Z,23.20
2018-05-29T18:37:29.469Z,23.00
2018-05-29T18:39:57.738Z,22.90
2018-05-29T18:42:25.237Z,22.80
2018-05-29T18:44:52.862Z,22.70
2018-05-29T18:47:20.326Z,22.60
2018-05-29T18:49:48.601Z,22.40
2018-05-29T18:52:16.155Z,22.30
2018-05-29T18:54:48.285Z,22.10
2018-05-29T18:57:15.831Z,22.10
2018-05-29T18:59:43.348Z,22.00
2018-05-29T19:02:10.859Z,21.90
2018-05-29T19:04:38.378Z,21.80
2018-05-29T19:07:06.964Z,21.60
2018-05-29T19:09:34.457Z,21.60
2018-05-29T19:12:01.954Z,21.50
2018-05-29T19:14:29.503Z,21.40
2018-05-29T19:16:57.002Z,21.30
2018-05-29T19:19:25.292Z,21.00
2018-05-29T19:21:53.589Z,20.90
2018-05-29T19:24:21.086Z,20.90
2018-05-29T19:26:48.584Z,20.90
2018-05-29T19:29:16.922Z,20.70
2018-05-29T19:31:44.419Z,20.70
2018-05-29T19:34:12.682Z,20.50
2018-05-29T19:36:40.189Z,20.40
2018-05-29T19:39:07.679Z,20.40
2018-05-29T19:41:35.174Z,20.30
2018-05-29T19:44:03.459Z,20.00
2018-05-29T19:46:30.958Z,20.00
2018-05-29T19:48:59.298Z,19.90
2018-05-29T19:51:26.842Z,19.90
2018-05-29T19:53:54.335Z,19.80
2018-05-29T19:56:21.843Z,19.80
2018-05-29T20:03:30.741Z,19.70
2018-05-29T20:05:59.959Z,19.60
2018-05-29T20:08:29.350Z,19.60
2018-05-29T20:10:57.017Z,19.60
2018-05-29T20:13:25.464Z,19.50
2018-05-29T20:15:52.955Z,19.50
2018-05-29T20:18:20.450Z,19.50
2018-05-29T20:20:47.987Z,19.40
2018-05-29T20:23:15.483Z,19.30
2018-05-29T20:25:42.978Z,19.30
2018-05-29T20:28:10.483Z,19.20
2018-05-29T20:30:38.739Z,19.10
2018-05-29T20:33:06.231Z,19.00
2018-05-29T20:35:34.494Z,19.00
2018-05-29T20:38:01.988Z,18.90
2018-05-29T20:40:29.484Z,18.90
2018-05-29T20:42:57.023Z,18.80
2018-05-29T20:45:24.598Z,18.80
2018-05-29T20:47:52.091Z,18.70
2018-05-29T20:50:19.618Z,18.70
2018-05-29T20:52:47.114Z,18.70
2018-05-29T20:55:14.608Z,18.60
2018-05-29T20:57:42.115Z,18.60
2018-05-29T21:00:09.606Z,18.60
2018-05-29T21:02:37.880Z,18.40
2018-05-29T21:05:06.210Z,18.40
2018-05-29T21:07:33.697Z,18.40
2018-05-29T21:10:01.184Z,18.30
2018-05-29T21:12:28.714Z,18.20
2018-05-29T21:14:56.202Z,18.20
2018-05-29T21:17:24.452Z,18.10
2018-05-29T21:19:51.971Z,18.00
2018-05-29T21:22:19.554Z,18.00
2018-05-29T21:24:46.979Z,18.00
2018-05-29T21:27:15.281Z,17.80
2018-05-29T21:29:42.771Z,17.80
2018-05-29T21:32:10.260Z,17.80
2018-05-29T21:34:38.579Z,17.60
2018-05-29T21:37:06.082Z,17.60
2018-05-29T21:39:33.579Z,17.60
2018-05-29T21:42:02.014Z,17.50
2018-05-29T21:44:29.553Z,17.50
2018-05-29T21:46:58.047Z,17.50
2018-05-29T21:49:25.563Z,17.40
2018-05-29T21:51:53.180Z,17.40
2018-05-29T21:54:20.704Z,17.40
2018-05-29T21:56:48.274Z,17.40
2018-05-29T21:59:15.867Z,17.40
2018-05-29T22:01:43.350Z,17.40
2018-05-29T22:04:10.905Z,17.40
2018-05-29T22:06:38.398Z,17.30
2018-05-29T22:09:05.895Z,17.30
2018-05-29T22:11:33.426Z,17.20
2018-05-29T22:14:00.918Z,17.20
2018-05-29T22:16:28.415Z,17.20
2018-05-29T22:18:55.946Z,17.20
2018-05-29T22:21:23.434Z,17.20
2018-05-29T22:23:50.945Z,17.20
2018-05-29T22:26:18.446Z,17.20
2018-05-29T22:28:45.952Z,17.20
2018-05-29T22:31:13.463Z,17.20
2018-05-29T22:33:41.148Z,17.20
2018-05-29T22:36:08.751Z,17.30
2018-05-29T22:38:36.404Z,17.30
2018-05-29T22:41:03.954Z,17.30
2018-05-29T22:43:31.442Z,17.30
2018-05-29T22:45:58.930Z,17.30
2018-05-29T22:48:26.474Z,17.30
2018-05-29T22:50:54.028Z,17.30
2018-05-29T22:53:21.594Z,17.30
2018-05-29T22:55:49.766Z,17.30
2018-05-29T22:58:17.261Z,17.20
2018-05-29T23:00:44.750Z,17.20
2018-05-29T23:03:13.038Z,17.10
2018-05-29T23:05:40.571Z,17.10
2018-05-29T23:08:08.039Z,17.00
2018-05-29T23:10:35.579Z,17.10
2018-05-29T23:13:03.072Z,17.00
2018-05-29T23:15:30.558Z,17.00
2018-05-29T23:17:58.071Z,17.00
2018-05-29T23:20:25.555Z,17.00
2018-05-29T23:22:53.042Z,17.10
2018-05-29T23:25:20.658Z,17.10
2018-05-29T23:27:48.195Z,17.00
2018-05-29T23:30:16.893Z,17.00
2018-05-29T23:32:44.423Z,17.00
2018-05-29T23:35:11.919Z,17.00
2018-05-29T23:37:39.597Z,16.90
2018-05-29T23:40:07.873Z,16.80
2018-05-29T23:42:35.359Z,16.80
2018-05-29T23:45:02.859Z,16.80
2018-05-29T23:47:30.394Z,16.80
2018-05-29T23:49:57.878Z,16.70
2018-05-29T23:52:25.371Z,16.70
2018-05-29T23:54:52.919Z,16.60
2018-05-29T23:57:20.415Z,16.60
2018-05-29T23:59:47.911Z,16.50
